Terminal Aerodrome Forecast
Issued by NWS

Current Version | Previous Version | Text Only | Print | Product List | Glossary On
Versions: 1 2 3 4 5 6 7 8 9 10 11 12
000
FTUS42 TJSJ 020500
TAFJPS
TAF
TJPS 020532Z 0206/0306 06005KT P6SM FEW030
     FM021400 14010KT P6SM FEW030
     FM022330 09007KT P6SM FEW030 SCT060
      AMD NOT SKED 0212/0303=

USA.gov is the U.S. government's official web portal to all federal, state and local government web resources and services.